Terminal Aerodrome Forecast
Issued by NWS South Bend, IN

Home | Current Version | Previous Version | Text Only | Print | Product List | Glossary Off
Versions: 1 2 3 4 5 6 7 8 9 10 11 12 13 14 15

000
FTUS43 KIWX 161900 AAA
TAFSBN
TAF AMD
KSBN 161935Z 1620/1718 VRB03KT P6SM SCT030 BKN050
     FM170500 29003KT P6SM SCT050
     FM170900 VRB03KT 4SM BR SKC
     FM171300 32005KT P6SM SKC=

USA.gov is the U.S. government's official web portal to all federal, state and local government web resources and services.